createdAt,value
2018-09-09T00:00:48.209Z,0
2018-09-09T00:01:57.892Z,0
2018-09-09T00:03:07.070Z,0
2018-09-09T00:04:16.756Z,0
2018-09-09T00:05:26.441Z,0
2018-09-09T00:06:35.337Z,0
2018-09-09T00:07:44.753Z,0
2018-09-09T00:08:54.215Z,0
2018-09-09T00:10:03.361Z,0
2018-09-09T00:11:12.816Z,0
2018-09-09T00:12:22.490Z,0
2018-09-09T00:13:31.888Z,0
2018-09-09T00:14:41.354Z,0
2018-09-09T00:15:50.288Z,0
2018-09-09T00:17:00.086Z,0
2018-09-09T00:18:09.372Z,0
2018-09-09T00:19:18.833Z,0
2018-09-09T00:20:28.519Z,0
2018-09-09T00:21:38.221Z,0
2018-09-09T00:22:47.646Z,0
2018-09-09T00:23:56.564Z,0
2018-09-09T00:25:05.477Z,0
2018-09-09T00:26:14.908Z,0
2018-09-09T00:27:24.073Z,0
2018-09-09T00:28:33.509Z,0
2018-09-09T00:29:42.934Z,0
2018-09-09T00:30:52.617Z,0
2018-09-09T00:32:02.047Z,0
2018-09-09T00:33:10.715Z,0
2018-09-09T00:34:20.399Z,0
2018-09-09T00:35:29.566Z,0
2018-09-09T00:36:38.980Z,0
2018-09-09T00:37:48.155Z,0
2018-09-09T00:38:58.134Z,0
2018-09-09T00:40:07.324Z,0
2018-09-09T00:41:16.246Z,0
2018-09-09T00:42:25.945Z,0
2018-09-09T00:43:35.113Z,0
2018-09-09T00:44:44.297Z,0
2018-09-09T00:45:53.554Z,0
2018-09-09T00:47:03.253Z,0
2018-09-09T00:48:12.428Z,0
2018-09-09T00:49:22.127Z,0
2018-09-09T00:50:31.307Z,0
2018-09-09T00:51:39.958Z,0
2018-09-09T00:52:49.442Z,0
2018-09-09T00:53:58.609Z,0
2018-09-09T00:55:07.785Z,0
2018-09-09T00:56:17.284Z,0
2018-09-09T00:57:26.771Z,0
2018-09-09T00:58:36.476Z,0
2018-09-09T00:59:46.168Z,0
2018-09-09T01:00:56.099Z,0
2018-09-09T01:02:05.260Z,0
2018-09-09T01:03:14.955Z,0
2018-09-09T01:04:24.396Z,0
2018-09-09T01:05:34.080Z,0
2018-09-09T01:06:43.501Z,0
2018-09-09T01:07:52.668Z,0
2018-09-09T01:09:02.671Z,0
2018-09-09T01:10:12.115Z,0
2018-09-09T01:11:21.563Z,0
2018-09-09T01:12:30.970Z,0
2018-09-09T01:13:40.386Z,0
2018-09-09T01:14:49.292Z,0
2018-09-09T01:15:58.741Z,0
2018-09-09T01:17:08.165Z,0
2018-09-09T01:18:17.595Z,0
2018-09-09T01:19:27.021Z,0
2018-09-09T01:20:36.449Z,0
2018-09-09T01:21:45.606Z,0
2018-09-09T01:22:55.306Z,0
2018-09-09T01:24:04.239Z,0
2018-09-09T01:25:14.160Z,0
2018-09-09T01:26:23.322Z,0
2018-09-09T01:27:33.429Z,0
2018-09-09T01:28:43.408Z,0
2018-09-09T01:29:52.581Z,0
2018-09-09T01:31:02.015Z,0
2018-09-09T01:32:10.998Z,0
2018-09-09T01:33:20.750Z,0
2018-09-09T01:34:30.178Z,0
2018-09-09T01:35:39.848Z,0
2018-09-09T01:36:49.788Z,0
2018-09-09T01:37:59.487Z,0
2018-09-09T01:39:08.902Z,0
2018-09-09T01:40:18.076Z,0
2018-09-09T01:41:27.479Z,0
2018-09-09T01:42:37.423Z,0
2018-09-09T01:43:46.833Z,0
2018-09-09T01:44:56.040Z,0
2018-09-09T01:46:05.718Z,0
2018-09-09T01:47:15.644Z,0
2018-09-09T01:48:24.559Z,0
2018-09-09T01:49:33.975Z,0
2018-09-09T01:51:02.869Z,0
2018-09-09T01:52:12.297Z,0
2018-09-09T01:53:21.715Z,0
2018-09-09T01:54:31.124Z,0
2018-09-09T01:55:40.551Z,0
2018-09-09T01:56:50.217Z,0
2018-09-09T01:57:59.650Z,0
2018-09-09T01:59:09.076Z,0
2018-09-09T02:00:18.766Z,0
2018-09-09T02:01:27.432Z,0
2018-09-09T02:02:36.893Z,0
2018-09-09T02:03:46.058Z,0
2018-09-09T02:04:55.202Z,0
2018-09-09T02:06:04.635Z,0
2018-09-09T02:07:14.074Z,0
2018-09-09T02:08:23.526Z,0
2018-09-09T02:09:33.224Z,0
2018-09-09T02:10:42.406Z,0
2018-09-09T02:11:51.578Z,0
2018-09-09T02:13:00.999Z,0
2018-09-09T02:14:10.173Z,0
2018-09-09T02:15:19.618Z,0
2018-09-09T02:16:28.800Z,0
2018-09-09T02:17:38.508Z,0
2018-09-09T02:18:47.928Z,0
2018-09-09T02:19:57.099Z,0
2018-09-09T02:21:06.268Z,0
2018-09-09T02:22:15.967Z,0
2018-09-09T02:23:25.124Z,0
2018-09-09T02:24:34.541Z,0
2018-09-09T02:25:44.327Z,0
2018-09-09T02:26:53.785Z,0
2018-09-09T02:28:02.939Z,0
2018-09-09T02:29:12.899Z,0
2018-09-09T02:30:22.596Z,0
2018-09-09T02:31:31.758Z,0
2018-09-09T02:32:41.187Z,0
2018-09-09T02:33:50.898Z,0
2018-09-09T02:35:00.843Z,0
2018-09-09T02:36:10.280Z,0
2018-09-09T02:37:20.022Z,0
2018-09-09T02:38:29.428Z,0
2018-09-09T02:39:38.870Z,0
2018-09-09T02:40:48.524Z,0
2018-09-09T02:41:57.950Z,0
2018-09-09T02:43:07.638Z,0
2018-09-09T02:44:17.053Z,0
2018-09-09T02:45:26.530Z,0
2018-09-09T02:46:36.227Z,0
2018-09-09T02:47:45.677Z,0
2018-09-09T02:48:55.356Z,0
2018-09-09T02:50:04.819Z,0
2018-09-09T02:51:13.975Z,0
2018-09-09T02:52:23.732Z,0
2018-09-09T02:53:33.671Z,0
2018-09-09T02:54:42.852Z,0
2018-09-09T02:55:52.530Z,0
2018-09-09T02:57:02.483Z,0
2018-09-09T02:58:12.163Z,0
2018-09-09T02:59:21.850Z,0
2018-09-09T03:00:31.529Z,0
2018-09-09T03:01:40.743Z,0
2018-09-09T03:02:49.913Z,0
2018-09-09T03:03:59.330Z,0
2018-09-09T03:05:08.229Z,0
2018-09-09T03:06:17.390Z,0
2018-09-09T03:07:27.071Z,0
2018-09-09T03:08:36.495Z,0
2018-09-09T03:09:45.961Z,0
2018-09-09T03:10:55.645Z,0
2018-09-09T03:12:05.066Z,0
2018-09-09T03:13:14.754Z,0
2018-09-09T03:14:23.401Z,0
2018-09-09T03:15:33.098Z,0
2018-09-09T03:16:42.513Z,0
2018-09-09T03:17:51.427Z,0
2018-09-09T03:19:01.105Z,0
2018-09-09T03:20:10.342Z,0
2018-09-09T03:21:20.083Z,0
2018-09-09T03:22:29.772Z,0
2018-09-09T03:23:39.218Z,0
2018-09-09T03:24:48.648Z,0
2018-09-09T03:25:57.815Z,0
2018-09-09T03:27:07.238Z,0
2018-09-09T03:28:16.746Z,0
2018-09-09T03:29:25.902Z,0
2018-09-09T03:30:35.612Z,0
2018-09-09T03:31:45.028Z,0
2018-09-09T03:32:54.457Z,0
2018-09-09T03:34:03.882Z,0
2018-09-09T03:35:13.292Z,0
2018-09-09T03:36:22.979Z,0
2018-09-09T03:37:32.659Z,0
2018-09-09T03:38:42.332Z,0
2018-09-09T03:39:51.747Z,0
2018-09-09T03:41:01.158Z,0
2018-09-09T03:42:10.844Z,0
2018-09-09T03:43:20.528Z,0
2018-09-09T03:44:30.750Z,0
2018-09-09T03:45:40.177Z,0
2018-09-09T03:46:49.636Z,0
2018-09-09T03:47:59.055Z,0
2018-09-09T03:49:08.383Z,0
2018-09-09T03:50:18.054Z,0
2018-09-09T03:51:27.231Z,0
2018-09-09T03:52:36.412Z,0
2018-09-09T03:53:45.849Z,0
2018-09-09T03:54:55.799Z,0
2018-09-09T03:56:05.208Z,0
2018-09-09T03:57:14.129Z,0
2018-09-09T03:58:23.565Z,0
2018-09-09T03:59:32.961Z,0
2018-09-09T04:00:42.897Z,0
2018-09-09T04:01:52.074Z,0
2018-09-09T04:03:01.513Z,0
2018-09-09T04:04:10.939Z,0
2018-09-09T04:05:20.618Z,0
2018-09-09T04:06:29.777Z,0
2018-09-09T04:07:39.212Z,0
2018-09-09T04:08:48.663Z,0
2018-09-09T04:09:58.171Z,0
2018-09-09T04:11:07.648Z,0
2018-09-09T04:12:17.342Z,0
2018-09-09T04:13:27.436Z,0
2018-09-09T04:14:36.862Z,0
2018-09-09T04:15:45.500Z,0
2018-09-09T04:16:54.910Z,0
2018-09-09T04:18:04.328Z,0
2018-09-09T04:19:14.017Z,0
2018-09-09T04:20:23.462Z,0
2018-09-09T04:21:32.882Z,0
2018-09-09T04:22:41.782Z,0
2018-09-09T04:23:51.467Z,0
2018-09-09T04:25:00.891Z,0
2018-09-09T04:26:10.580Z,0
2018-09-09T04:27:19.491Z,0
2018-09-09T04:28:29.174Z,0
2018-09-09T04:29:38.340Z,0
2018-09-09T04:30:48.212Z,0
2018-09-09T04:31:58.388Z,0
2018-09-09T04:33:08.114Z,0
2018-09-09T04:34:18.053Z,0
2018-09-09T04:35:27.741Z,0
2018-09-09T04:36:37.439Z,0
2018-09-09T04:37:46.864Z,0
2018-09-09T04:38:56.783Z,0
2018-09-09T04:40:06.548Z,0
2018-09-09T04:41:15.802Z,0
2018-09-09T04:42:25.236Z,0
2018-09-09T04:43:34.438Z,0
2018-09-09T04:44:44.113Z,0
2018-09-09T04:45:53.539Z,0
2018-09-09T04:47:02.711Z,0
2018-09-09T04:48:11.613Z,0
2018-09-09T04:49:21.303Z,0
2018-09-09T04:50:30.734Z,0
2018-09-09T04:51:39.646Z,0
2018-09-09T04:52:49.066Z,0
2018-09-09T04:53:58.482Z,0
2018-09-09T04:55:07.388Z,0
2018-09-09T04:56:17.062Z,0
2018-09-09T04:57:26.478Z,0
2018-09-09T04:58:35.646Z,0
2018-09-09T04:59:45.088Z,0
2018-09-09T05:00:54.514Z,0
2018-09-09T05:02:03.941Z,0
2018-09-09T05:03:13.419Z,0
2018-09-09T05:04:22.859Z,0
2018-09-09T05:05:32.338Z,0
2018-09-09T05:06:42.310Z,0
2018-09-09T05:07:51.990Z,0
2018-09-09T05:09:01.442Z,0
2018-09-09T05:10:11.140Z,0
2018-09-09T05:11:19.801Z,0
2018-09-09T05:12:29.473Z,0
2018-09-09T05:13:39.141Z,0
2018-09-09T05:14:48.551Z,0
2018-09-09T05:15:58.002Z,0
2018-09-09T05:17:07.158Z,0
2018-09-09T05:18:16.834Z,0
2018-09-09T05:19:26.254Z,0
2018-09-09T05:20:35.670Z,0
2018-09-09T05:21:45.099Z,0
2018-09-09T05:22:54.790Z,0
2018-09-09T05:24:04.221Z,0
2018-09-09T05:25:13.655Z,0
2018-09-09T05:26:23.120Z,0
2018-09-09T05:27:33.061Z,0
2018-09-09T05:28:41.971Z,4
2018-09-09T05:29:51.949Z,4
2018-09-09T05:31:01.377Z,4
2018-09-09T05:32:11.074Z,0
2018-09-09T05:33:20.682Z,0
2018-09-09T05:34:30.096Z,0
2018-09-09T05:35:39.259Z,0
2018-09-09T05:36:48.679Z,0
2018-09-09T05:37:58.108Z,0
2018-09-09T05:39:07.018Z,4
2018-09-09T05:40:16.460Z,4
2018-09-09T05:41:26.148Z,4
2018-09-09T05:42:35.761Z,4
2018-09-09T05:43:45.200Z,4
2018-09-09T05:44:54.531Z,4
2018-09-09T05:46:04.215Z,4
2018-09-09T05:47:13.866Z,4
2018-09-09T05:48:23.553Z,4
2018-09-09T05:49:32.970Z,4
2018-09-09T05:50:42.141Z,4
2018-09-09T05:51:51.605Z,4
2018-09-09T05:53:01.562Z,4
2018-09-09T05:54:11.034Z,0
2018-09-09T05:55:20.464Z,0
2018-09-09T05:56:30.151Z,0
2018-09-09T05:57:39.678Z,0
2018-09-09T05:58:48.873Z,0
2018-09-09T05:59:58.563Z,4
2018-09-09T06:01:08.049Z,4
2018-09-09T06:02:17.204Z,4
2018-09-09T06:03:26.618Z,4
2018-09-09T06:04:35.548Z,4
2018-09-09T06:05:45.506Z,4
2018-09-09T06:06:54.959Z,4
2018-09-09T06:08:04.649Z,4
2018-09-09T06:09:14.065Z,4
2018-09-09T06:10:23.751Z,4
2018-09-09T06:11:32.670Z,4
2018-09-09T06:12:41.836Z,4
2018-09-09T06:13:50.997Z,4
2018-09-09T06:15:00.440Z,4
2018-09-09T06:16:09.644Z,4
2018-09-09T06:17:19.062Z,4
2018-09-09T06:18:28.491Z,4
2018-09-09T06:19:38.447Z,4
2018-09-09T06:20:47.867Z,4
2018-09-09T06:21:57.038Z,4
2018-09-09T06:23:06.492Z,4
2018-09-09T06:24:15.458Z,4
2018-09-09T06:25:25.149Z,4
2018-09-09T06:26:34.104Z,4
2018-09-09T06:27:43.069Z,4
2018-09-09T06:28:52.794Z,4
2018-09-09T06:30:02.221Z,4
2018-09-09T06:31:11.670Z,4
2018-09-09T06:32:20.897Z,4
2018-09-09T06:33:30.117Z,4
2018-09-09T06:34:39.423Z,4
2018-09-09T06:35:49.460Z,4
2018-09-09T06:36:58.951Z,4
2018-09-09T06:38:08.439Z,4
2018-09-09T06:39:17.779Z,8
2018-09-09T06:40:27.302Z,4
2018-09-09T06:41:36.799Z,4
2018-09-09T06:42:46.558Z,4
2018-09-09T06:43:56.294Z,8
2018-09-09T06:45:06.282Z,8
2018-09-09T06:46:15.516Z,4
2018-09-09T06:47:24.749Z,8
2018-09-09T06:48:34.233Z,8
2018-09-09T06:49:43.151Z,8
2018-09-09T06:50:52.332Z,4
2018-09-09T06:52:01.789Z,8
2018-09-09T06:53:11.519Z,8
2018-09-09T06:54:20.945Z,8
2018-09-09T06:55:31.066Z,8
2018-09-09T06:56:40.563Z,8
2018-09-09T06:57:49.454Z,4
2018-09-09T06:58:59.409Z,8
2018-09-09T07:00:08.583Z,8
2018-09-09T07:01:18.277Z,8
2018-09-09T07:02:27.810Z,8
2018-09-09T07:03:37.246Z,8
2018-09-09T07:04:46.413Z,8
2018-09-09T07:05:56.347Z,4
2018-09-09T07:07:06.028Z,8
2018-09-09T07:08:15.214Z,8
2018-09-09T07:09:24.704Z,12
2018-09-09T07:10:34.402Z,8
2018-09-09T07:11:45.300Z,12
2018-09-09T07:12:54.656Z,8
2018-09-09T07:14:04.156Z,12
2018-09-09T07:15:13.582Z,12
2018-09-09T07:16:23.309Z,8
2018-09-09T07:17:32.478Z,8
2018-09-09T07:18:41.173Z,8
2018-09-09T07:19:50.604Z,8
2018-09-09T07:21:00.067Z,8
2018-09-09T07:22:09.487Z,8
2018-09-09T07:23:18.920Z,8
2018-09-09T07:24:27.832Z,8
2018-09-09T07:25:37.290Z,8
2018-09-09T07:26:47.256Z,8
2018-09-09T07:27:56.722Z,12
2018-09-09T07:29:05.929Z,12
2018-09-09T07:30:15.109Z,12
2018-09-09T07:31:24.848Z,8
2018-09-09T07:32:34.045Z,8
2018-09-09T07:33:43.503Z,12
2018-09-09T07:34:52.976Z,8
2018-09-09T07:36:02.434Z,8
2018-09-09T07:37:11.885Z,8
2018-09-09T07:38:20.925Z,12
2018-09-09T07:39:30.719Z,8
2018-09-09T07:40:39.901Z,8
2018-09-09T07:41:49.385Z,8
2018-09-09T07:42:58.768Z,8
2018-09-09T07:44:08.391Z,16
2018-09-09T07:45:18.143Z,16
2018-09-09T07:46:27.831Z,12
2018-09-09T07:47:37.019Z,16
2018-09-09T07:48:46.183Z,36
2018-09-09T07:49:55.626Z,24
2018-09-09T07:51:05.543Z,12
2018-09-09T07:52:14.976Z,12
2018-09-09T07:53:24.424Z,12
2018-09-09T07:54:33.419Z,12
2018-09-09T07:55:42.625Z,12
2018-09-09T07:56:51.332Z,12
2018-09-09T07:58:00.835Z,12
2018-09-09T07:59:10.563Z,16
2018-09-09T08:00:21.352Z,16
2018-09-09T08:01:32.578Z,16
2018-09-09T08:02:41.770Z,16
2018-09-09T08:03:51.257Z,16
2018-09-09T08:05:00.956Z,16
2018-09-09T08:06:10.157Z,20
2018-09-09T08:07:19.867Z,20
2018-09-09T08:08:29.561Z,24
2018-09-09T08:09:38.986Z,20
2018-09-09T08:10:48.213Z,24
2018-09-09T08:11:57.429Z,24
2018-09-09T08:13:07.708Z,20
2018-09-09T08:14:18.150Z,20
2018-09-09T08:15:27.072Z,24
2018-09-09T08:16:36.234Z,20
2018-09-09T08:17:45.409Z,24
2018-09-09T08:18:54.330Z,28
2018-09-09T08:20:03.782Z,20
2018-09-09T08:21:12.771Z,20
2018-09-09T08:22:22.501Z,28
2018-09-09T08:23:31.733Z,36
2018-09-09T08:24:41.721Z,32
2018-09-09T08:25:51.167Z,28
2018-09-09T08:27:00.361Z,24
2018-09-09T08:28:10.294Z,24
2018-09-09T08:29:19.762Z,32
2018-09-09T08:30:29.451Z,28
2018-09-09T08:31:39.591Z,28
2018-09-09T08:32:49.016Z,24
2018-09-09T08:33:58.764Z,20
2018-09-09T08:35:08.185Z,20
2018-09-09T08:36:17.882Z,16
2018-09-09T08:37:27.595Z,16
2018-09-09T08:38:37.029Z,20
2018-09-09T08:39:46.456Z,20
2018-09-09T08:40:55.362Z,20
2018-09-09T08:42:05.322Z,20
2018-09-09T08:43:14.236Z,20
2018-09-09T08:44:23.413Z,20
2018-09-09T08:45:33.160Z,16
2018-09-09T08:46:42.379Z,20
2018-09-09T08:47:52.083Z,16
2018-09-09T08:49:01.519Z,16
2018-09-09T08:50:10.447Z,16
2018-09-09T08:51:19.612Z,16
2018-09-09T08:52:29.301Z,16
2018-09-09T08:53:38.986Z,16
2018-09-09T08:54:48.503Z,16
2018-09-09T08:55:58.002Z,16
2018-09-09T08:57:07.460Z,16
2018-09-09T08:58:17.174Z,16
2018-09-09T08:59:26.377Z,16
2018-09-09T09:00:35.836Z,16
2018-09-09T09:01:45.060Z,20
2018-09-09T09:02:53.984Z,20
2018-09-09T09:04:03.160Z,24
2018-09-09T09:05:12.947Z,32
2018-09-09T09:06:22.387Z,24
2018-09-09T09:07:31.925Z,44
2018-09-09T09:08:41.961Z,40
2018-09-09T09:09:51.409Z,28
2018-09-09T09:11:00.327Z,40
2018-09-09T09:12:09.488Z,24
2018-09-09T09:13:19.166Z,24
2018-09-09T09:14:28.916Z,24
2018-09-09T09:15:38.364Z,28
2018-09-09T09:16:47.792Z,28
2018-09-09T09:17:57.480Z,36
2018-09-09T09:19:06.905Z,28
2018-09-09T09:20:16.588Z,20
2018-09-09T09:21:25.503Z,40
2018-09-09T09:22:35.005Z,20
2018-09-09T09:23:44.722Z,20
2018-09-09T09:24:53.610Z,20
2018-09-09T09:26:02.789Z,24
2018-09-09T09:27:12.230Z,20
2018-09-09T09:28:21.136Z,32
2018-09-09T09:29:30.816Z,28
2018-09-09T09:30:41.016Z,44
2018-09-09T09:31:50.819Z,40
2018-09-09T09:33:00.542Z,24
2018-09-09T09:34:10.231Z,24
2018-09-09T09:35:19.418Z,32
2018-09-09T09:36:28.626Z,40
2018-09-09T09:37:38.312Z,36
2018-09-09T09:38:47.760Z,24
2018-09-09T09:39:57.431Z,12
2018-09-09T09:41:07.109Z,16
2018-09-09T09:42:16.825Z,16
2018-09-09T09:43:26.681Z,20
2018-09-09T09:44:36.135Z,20
2018-09-09T09:45:45.314Z,20
2018-09-09T09:46:54.967Z,24
2018-09-09T09:48:03.624Z,24
2018-09-09T09:49:12.800Z,24
2018-09-09T09:50:22.470Z,24
2018-09-09T09:51:31.921Z,28
2018-09-09T09:52:41.079Z,32
2018-09-09T09:53:50.524Z,36
2018-09-09T09:54:59.478Z,32
2018-09-09T09:56:08.909Z,36
2018-09-09T09:57:18.326Z,32
2018-09-09T09:58:28.011Z,36
2018-09-09T09:59:37.192Z,32
2018-09-09T10:00:46.362Z,32
2018-09-09T10:01:55.799Z,36
2018-09-09T10:03:04.737Z,32
2018-09-09T10:04:13.895Z,32
2018-09-09T10:05:23.610Z,24
2018-09-09T10:06:33.557Z,28
2018-09-09T10:07:42.733Z,24
2018-09-09T10:08:52.676Z,24
2018-09-09T10:10:02.110Z,28
2018-09-09T10:11:11.020Z,28
2018-09-09T10:12:20.189Z,24
2018-09-09T10:13:29.611Z,20
2018-09-09T10:14:39.038Z,24
2018-09-09T10:15:48.461Z,24
2018-09-09T10:16:58.130Z,28
2018-09-09T10:18:07.287Z,32
2018-09-09T10:19:16.459Z,32
2018-09-09T10:20:25.882Z,28
2018-09-09T10:21:35.307Z,24
2018-09-09T10:22:44.497Z,28
2018-09-09T10:23:54.131Z,32
2018-09-09T10:25:02.985Z,28
2018-09-09T10:26:12.149Z,28
2018-09-09T10:27:21.071Z,36
2018-09-09T10:28:30.291Z,36
2018-09-09T10:29:39.723Z,28
2018-09-09T10:30:49.413Z,36
2018-09-09T10:31:59.359Z,28
2018-09-09T10:33:08.783Z,24
2018-09-09T10:34:18.523Z,20
2018-09-09T10:35:28.209Z,20
2018-09-09T10:36:37.379Z,32
2018-09-09T10:37:46.581Z,24
2018-09-09T10:38:56.521Z,24
2018-09-09T10:40:05.947Z,20
2018-09-09T10:41:15.643Z,20
2018-09-09T10:42:25.369Z,16
2018-09-09T10:43:35.064Z,20
2018-09-09T10:44:44.754Z,16
2018-09-09T10:45:53.937Z,16
2018-09-09T10:47:03.468Z,16
2018-09-09T10:48:12.986Z,16
2018-09-09T10:49:21.893Z,20
2018-09-09T10:50:31.326Z,24
2018-09-09T10:51:40.755Z,24
2018-09-09T10:52:50.441Z,28
2018-09-09T10:54:00.395Z,36
2018-09-09T10:55:10.791Z,32
2018-09-09T10:56:19.951Z,40
2018-09-09T10:57:29.356Z,28
2018-09-09T10:58:38.282Z,28
2018-09-09T10:59:48.009Z,36
2018-09-09T11:00:57.438Z,32
2018-09-09T11:02:06.861Z,32
2018-09-09T11:03:15.768Z,32
2018-09-09T11:04:25.728Z,36
2018-09-09T11:05:34.895Z,32
2018-09-09T11:06:43.810Z,24
2018-09-09T11:07:53.571Z,24
2018-09-09T11:09:02.249Z,24
2018-09-09T11:10:11.175Z,24
2018-09-09T11:11:20.862Z,24
2018-09-09T11:12:30.776Z,28
2018-09-09T11:13:40.478Z,24
2018-09-09T11:14:50.164Z,28
2018-09-09T11:15:59.898Z,24
2018-09-09T11:17:08.837Z,24
2018-09-09T11:18:18.778Z,24
2018-09-09T11:19:28.625Z,24
2018-09-09T11:20:38.039Z,24
2018-09-09T11:21:47.973Z,16
2018-09-09T11:22:57.140Z,16
2018-09-09T11:24:06.692Z,20
2018-09-09T11:25:16.790Z,24
2018-09-09T11:26:26.473Z,20
2018-09-09T11:27:35.638Z,20
2018-09-09T11:28:45.326Z,20
2018-09-09T11:29:54.948Z,28
2018-09-09T11:31:04.549Z,20
2018-09-09T11:32:13.967Z,20
2018-09-09T11:33:23.651Z,20
2018-09-09T11:34:33.059Z,24
2018-09-09T11:35:42.490Z,24
2018-09-09T11:36:52.172Z,20
2018-09-09T11:38:01.829Z,24
2018-09-09T11:39:11.258Z,20
2018-09-09T11:40:20.446Z,24
2018-09-09T11:41:29.615Z,24
2018-09-09T11:42:39.541Z,28
2018-09-09T11:43:48.964Z,28
2018-09-09T11:44:58.380Z,20
2018-09-09T11:46:07.809Z,20
2018-09-09T11:47:16.719Z,20
2018-09-09T11:48:26.451Z,20
2018-09-09T11:49:35.886Z,20
2018-09-09T11:50:46.276Z,24
2018-09-09T11:51:55.468Z,24
2018-09-09T11:53:05.291Z,20
2018-09-09T11:54:15.087Z,20
2018-09-09T11:55:24.046Z,20
2018-09-09T11:56:32.964Z,24
2018-09-09T11:57:42.401Z,32
2018-09-09T11:58:52.088Z,32
2018-09-09T12:00:01.527Z,28
2018-09-09T12:01:10.678Z,28
2018-09-09T12:02:19.846Z,24
2018-09-09T12:03:29.798Z,28
2018-09-09T12:04:39.471Z,28
2018-09-09T12:05:48.884Z,28
2018-09-09T12:06:58.040Z,32
2018-09-09T12:08:07.450Z,28
2018-09-09T12:09:17.117Z,24
2018-09-09T12:10:26.818Z,28
2018-09-09T12:11:36.491Z,24
2018-09-09T12:12:46.184Z,28
2018-09-09T12:13:55.713Z,32
2018-09-09T12:15:05.579Z,32
2018-09-09T12:16:14.999Z,32
2018-09-09T12:17:24.241Z,32
2018-09-09T12:18:33.675Z,32
2018-09-09T12:19:42.835Z,32
2018-09-09T12:20:52.494Z,32
2018-09-09T12:22:01.916Z,36
2018-09-09T12:23:11.852Z,32
2018-09-09T12:24:21.530Z,36
2018-09-09T12:25:31.217Z,24
2018-09-09T12:26:40.959Z,24
2018-09-09T12:27:49.590Z,36
2018-09-09T12:28:59.292Z,32
2018-09-09T12:30:08.703Z,40
2018-09-09T12:31:18.146Z,36
2018-09-09T12:32:27.215Z,36
2018-09-09T12:33:37.044Z,40
2018-09-09T12:34:46.487Z,40
2018-09-09T12:35:55.905Z,40
2018-09-09T12:37:05.594Z,40
2018-09-09T12:38:15.273Z,36
2018-09-09T12:39:24.986Z,48
2018-09-09T12:40:34.672Z,44
2018-09-09T12:41:43.830Z,44
2018-09-09T12:42:52.746Z,44
2018-09-09T12:44:02.717Z,36
2018-09-09T12:45:12.429Z,28
2018-09-09T12:46:22.119Z,44
2018-09-09T12:47:31.556Z,32
2018-09-09T12:48:40.983Z,32
2018-09-09T12:49:50.147Z,28
2018-09-09T12:50:59.318Z,24
2018-09-09T12:52:09.017Z,24
2018-09-09T12:53:17.919Z,28
2018-09-09T12:54:27.596Z,36
2018-09-09T12:55:37.022Z,28
2018-09-09T12:56:46.514Z,48
2018-09-09T12:57:55.684Z,24
2018-09-09T12:59:05.628Z,28
2018-09-09T13:00:15.230Z,24
2018-09-09T13:01:25.003Z,28
2018-09-09T13:02:34.421Z,32
2018-09-09T13:03:44.096Z,28
2018-09-09T13:04:53.540Z,24
2018-09-09T13:06:03.214Z,24
2018-09-09T13:07:12.939Z,20
2018-09-09T13:08:22.418Z,20
2018-09-09T13:09:31.326Z,20
2018-09-09T13:10:40.494Z,24
2018-09-09T13:11:49.678Z,20
2018-09-09T13:12:58.342Z,20
2018-09-09T13:14:07.765Z,20
2018-09-09T13:15:17.224Z,20
2018-09-09T13:16:26.681Z,24
2018-09-09T13:17:36.107Z,20
2018-09-09T13:18:45.590Z,16
2018-09-09T13:19:54.759Z,16
2018-09-09T13:21:04.436Z,16
2018-09-09T13:22:14.132Z,20
2018-09-09T13:23:23.569Z,16
2018-09-09T13:24:33.295Z,16
2018-09-09T13:25:42.721Z,20
2018-09-09T13:26:52.179Z,20
2018-09-09T13:28:01.608Z,20
2018-09-09T13:29:11.293Z,20
2018-09-09T13:30:20.453Z,20
2018-09-09T13:31:29.876Z,20
2018-09-09T13:32:39.544Z,20
2018-09-09T13:33:49.227Z,24
2018-09-09T13:34:58.708Z,24
2018-09-09T13:36:08.696Z,40
2018-09-09T13:37:17.625Z,24
2018-09-09T13:38:26.804Z,24
2018-09-09T13:39:36.487Z,76
2018-09-09T13:40:46.192Z,40
2018-09-09T13:41:55.632Z,28
2018-09-09T13:43:04.788Z,48
2018-09-09T13:44:14.465Z,48
2018-09-09T13:45:24.137Z,56
2018-09-09T13:46:33.576Z,36
2018-09-09T13:47:42.739Z,52
2018-09-09T13:48:52.223Z,32
2018-09-09T13:50:01.397Z,32
2018-09-09T13:51:11.070Z,56
2018-09-09T13:52:19.753Z,56
2018-09-09T13:53:29.190Z,36
2018-09-09T13:54:38.619Z,36
2018-09-09T13:55:47.807Z,32
2018-09-09T13:56:57.513Z,28
2018-09-09T13:58:06.735Z,28
2018-09-09T13:59:16.148Z,20
2018-09-09T14:00:25.304Z,16
2018-09-09T14:01:35.237Z,20
2018-09-09T14:02:44.901Z,24
2018-09-09T14:03:54.644Z,28
2018-09-09T14:05:04.527Z,16
2018-09-09T14:06:13.976Z,20
2018-09-09T14:07:23.398Z,16
2018-09-09T14:08:32.833Z,16
2018-09-09T14:09:42.160Z,20
2018-09-09T14:10:51.876Z,28
2018-09-09T14:12:01.345Z,32
2018-09-09T14:13:10.775Z,24
2018-09-09T14:14:19.691Z,20
2018-09-09T14:15:28.863Z,20
2018-09-09T14:16:38.286Z,24
2018-09-09T14:17:47.455Z,32
2018-09-09T14:18:56.876Z,28
2018-09-09T14:20:06.565Z,16
2018-09-09T14:21:15.717Z,16
2018-09-09T14:22:25.394Z,44
2018-09-09T14:23:34.701Z,28
2018-09-09T14:24:43.953Z,24
2018-09-09T14:25:53.662Z,24
2018-09-09T14:27:03.605Z,24
2018-09-09T14:28:12.768Z,20
2018-09-09T14:29:22.051Z,16
2018-09-09T14:30:31.909Z,16
2018-09-09T14:31:41.351Z,8
2018-09-09T14:32:50.786Z,8
2018-09-09T14:34:00.476Z,8
2018-09-09T14:35:10.150Z,8
2018-09-09T14:36:18.818Z,8
2018-09-09T14:37:27.998Z,8
2018-09-09T14:38:37.694Z,12
2018-09-09T14:39:47.406Z,8
2018-09-09T14:40:57.016Z,8
2018-09-09T14:42:06.876Z,8
2018-09-09T14:43:16.306Z,8
2018-09-09T14:44:25.731Z,8
2018-09-09T14:45:34.917Z,12
2018-09-09T14:46:44.589Z,8
2018-09-09T14:47:53.747Z,12
2018-09-09T14:49:03.159Z,8
2018-09-09T14:50:12.624Z,8
2018-09-09T14:51:22.315Z,8
2018-09-09T14:52:31.741Z,8
2018-09-09T14:53:41.111Z,8
2018-09-09T14:54:50.801Z,8
2018-09-09T14:56:00.497Z,8
2018-09-09T14:57:09.927Z,8
2018-09-09T14:58:19.622Z,8
2018-09-09T14:59:28.784Z,8
2018-09-09T15:00:38.197Z,8
2018-09-09T15:01:47.603Z,8
2018-09-09T15:02:57.035Z,8
2018-09-09T15:04:06.473Z,8
2018-09-09T15:05:15.919Z,8
2018-09-09T15:06:25.335Z,8
2018-09-09T15:07:34.761Z,8
2018-09-09T15:08:44.241Z,8
2018-09-09T15:09:53.400Z,8
2018-09-09T15:11:03.080Z,8
2018-09-09T15:12:12.506Z,8
2018-09-09T15:13:22.447Z,8
2018-09-09T15:14:31.635Z,4
2018-09-09T15:15:40.793Z,8
2018-09-09T15:16:50.491Z,8
2018-09-09T15:17:59.406Z,8
2018-09-09T15:19:08.629Z,8
2018-09-09T15:20:18.047Z,8
2018-09-09T15:21:27.726Z,8
2018-09-09T15:22:37.248Z,8
2018-09-09T15:23:46.991Z,8
2018-09-09T15:24:56.755Z,8
2018-09-09T15:26:06.448Z,8
2018-09-09T15:27:15.091Z,8
2018-09-09T15:28:24.529Z,4
2018-09-09T15:29:34.212Z,4
2018-09-09T15:30:43.882Z,4
2018-09-09T15:31:53.305Z,4
2018-09-09T15:33:02.756Z,4
2018-09-09T15:34:12.313Z,4
2018-09-09T15:35:21.781Z,4
2018-09-09T15:36:31.482Z,8
2018-09-09T15:37:40.915Z,8
2018-09-09T15:38:50.606Z,8
2018-09-09T15:40:00.322Z,8
2018-09-09T15:41:10.447Z,8
2018-09-09T15:42:20.415Z,8
2018-09-09T15:43:30.363Z,8
2018-09-09T15:44:39.533Z,8
2018-09-09T15:45:48.965Z,4
2018-09-09T15:46:58.696Z,4
2018-09-09T15:48:08.126Z,4
2018-09-09T15:49:17.565Z,8
2018-09-09T15:50:27.419Z,8
2018-09-09T15:51:36.853Z,8
2018-09-09T15:52:46.281Z,4
2018-09-09T15:53:55.715Z,4
2018-09-09T15:55:05.141Z,4
2018-09-09T15:56:15.068Z,4
2018-09-09T15:57:25.027Z,4
2018-09-09T15:58:34.461Z,4
2018-09-09T15:59:43.886Z,4
2018-09-09T16:00:53.558Z,4
2018-09-09T16:02:02.748Z,4
2018-09-09T16:03:11.996Z,4
2018-09-09T16:04:21.190Z,4
2018-09-09T16:05:30.381Z,4
2018-09-09T16:06:40.324Z,4
2018-09-09T16:07:50.029Z,4
2018-09-09T16:08:59.455Z,4
2018-09-09T16:10:08.618Z,4
2018-09-09T16:11:18.067Z,4
2018-09-09T16:12:27.498Z,4
2018-09-09T16:13:36.680Z,4
2018-09-09T16:14:46.417Z,4
2018-09-09T16:15:55.609Z,4
2018-09-09T16:17:05.555Z,4
2018-09-09T16:18:15.005Z,4
2018-09-09T16:19:24.197Z,4
2018-09-09T16:20:33.636Z,4
2018-09-09T16:21:43.332Z,4
2018-09-09T16:22:53.017Z,4
2018-09-09T16:24:02.706Z,8
2018-09-09T16:25:12.430Z,4
2018-09-09T16:26:21.839Z,4
2018-09-09T16:27:31.010Z,4
2018-09-09T16:28:40.739Z,4
2018-09-09T16:29:50.202Z,4
2018-09-09T16:30:59.387Z,4
2018-09-09T16:32:08.832Z,4
2018-09-09T16:33:17.990Z,4
2018-09-09T16:34:27.431Z,4
2018-09-09T16:35:37.151Z,4
2018-09-09T16:36:46.865Z,4
2018-09-09T16:37:56.813Z,4
2018-09-09T16:39:06.260Z,4
2018-09-09T16:40:15.969Z,0
2018-09-09T16:41:25.416Z,0
2018-09-09T16:42:35.113Z,0
2018-09-09T16:43:44.287Z,4
2018-09-09T16:44:53.716Z,4
2018-09-09T16:46:02.883Z,4
2018-09-09T16:47:12.050Z,4
2018-09-09T16:48:21.731Z,4
2018-09-09T16:49:31.743Z,4
2018-09-09T16:50:41.159Z,4
2018-09-09T16:51:50.585Z,4